< < Back
Terminal Aerodrome Forecast


Current Version              Previous Versions:   1  2  3  4  5  6  7  8  9  

Terminal Aerodrome Forecast

412
FTUS42 KGSP 282300
TAFAND
TAF
KAND 282333Z 2900/2924 29010KT P6SM FEW250
     FM290400 32006KT P6SM FEW250
     FM291800 00000KT P6SM FEW050=



Latest METAR

666
SAUS70 KWBC 300300 RRB
MTRAND
METAR KAND 300256Z AUTO 01006KT 10SM CLR 22/14 A3000 RMK AO2 SLP149
T02220144 51015


USA.gov is the U.S. government's official web portal to all federal, state and local government web resources and services.